createdAt,value
2023-05-14T00:00:24.152Z,100.00
2023-05-14T00:01:21.031Z,100.00
2023-05-14T00:02:05.224Z,100.00
2023-05-14T00:03:14.417Z,100.00
2023-05-14T00:04:18.187Z,100.00
2023-05-14T00:05:19.913Z,100.00
2023-05-14T00:06:05.797Z,100.00
2023-05-14T00:06:57.734Z,100.00
2023-05-14T00:07:56.432Z,100.00
2023-05-14T00:08:44.703Z,100.00
2023-05-14T00:09:27.942Z,100.00
2023-05-14T00:10:32.785Z,100.00
2023-05-14T00:12:16.030Z,100.00
2023-05-14T00:13:03.648Z,100.00
2023-05-14T00:13:48.062Z,100.00
2023-05-14T00:14:33.630Z,100.00
2023-05-14T00:15:19.816Z,100.00
2023-05-14T00:16:16.001Z,100.00
2023-05-14T00:17:18.056Z,100.00
2023-05-14T00:18:10.536Z,100.00
2023-05-14T00:19:00.723Z,100.00
2023-05-14T00:19:44.928Z,100.00
2023-05-14T00:20:39.697Z,100.00
2023-05-14T00:21:37.435Z,100.00
2023-05-14T00:22:23.217Z,100.00
2023-05-14T00:23:21.194Z,100.00
2023-05-14T00:24:07.176Z,100.00
2023-05-14T00:24:48.846Z,100.00
2023-05-14T00:25:49.288Z,100.00
2023-05-14T00:26:52.832Z,100.00
2023-05-14T00:27:43.331Z,100.00
2023-05-14T00:28:25.143Z,100.00
2023-05-14T00:29:08.053Z,100.00
2023-05-14T00:29:52.529Z,100.00
2023-05-14T00:30:41.104Z,100.00
2023-05-14T00:31:30.957Z,100.00
2023-05-14T00:32:17.674Z,100.00
2023-05-14T00:33:00.582Z,100.00
2023-05-14T00:33:44.367Z,100.00
2023-05-14T00:34:36.996Z,100.00
2023-05-14T00:35:27.995Z,100.00
2023-05-14T00:36:09.734Z,100.00
2023-05-14T00:36:58.625Z,100.00
2023-05-14T00:37:45.354Z,100.00
2023-05-14T00:38:30.257Z,100.00
2023-05-14T00:39:17.531Z,100.00
2023-05-14T00:40:11.537Z,100.00
2023-05-14T00:41:01.860Z,100.00
2023-05-14T00:41:55.322Z,100.00
2023-05-14T00:42:49.545Z,100.00
2023-05-14T00:43:33.142Z,100.00
2023-05-14T00:44:31.155Z,100.00
2023-05-14T00:45:42.520Z,100.00
2023-05-14T00:46:31.816Z,100.00
2023-05-14T00:47:21.362Z,100.00
2023-05-14T00:48:10.366Z,100.00
2023-05-14T00:48:54.859Z,100.00
2023-05-14T00:49:46.814Z,100.00
2023-05-14T00:50:28.453Z,100.00
2023-05-14T00:51:19.347Z,100.00
2023-05-14T00:52:06.127Z,100.00
2023-05-14T00:52:49.512Z,100.00
2023-05-14T00:53:35.154Z,100.00
2023-05-14T00:54:20.465Z,100.00
2023-05-14T00:55:15.158Z,100.00
2023-05-14T00:56:10.489Z,100.00
2023-05-14T00:57:04.193Z,100.00
2023-05-14T00:57:57.968Z,100.00
2023-05-14T00:58:39.640Z,100.00
2023-05-14T00:59:22.654Z,100.00
2023-05-14T01:00:09.955Z,100.00
2023-05-14T01:00:55.192Z,100.00
2023-05-14T01:01:51.617Z,100.00
2023-05-14T01:02:52.711Z,100.00
2023-05-14T01:03:37.408Z,100.00
2023-05-14T01:04:27.841Z,100.00
2023-05-14T01:05:20.875Z,100.00
2023-05-14T01:06:36.280Z,100.00
2023-05-14T01:07:42.259Z,100.00
2023-05-14T01:09:23.613Z,100.00
2023-05-14T01:10:35.174Z,100.00
2023-05-14T01:11:42.548Z,100.00
2023-05-14T01:14:27.497Z,100.00
2023-05-14T01:15:17.589Z,100.00
2023-05-14T01:16:07.784Z,100.00
2023-05-14T01:17:11.559Z,100.00
2023-05-14T01:18:08.328Z,100.00
2023-05-14T01:18:56.659Z,100.00
2023-05-14T01:20:06.809Z,100.00
2023-05-14T01:20:54.538Z,100.00
2023-05-14T01:21:46.535Z,100.00
2023-05-14T01:22:40.352Z,100.00
2023-05-14T01:23:29.925Z,100.00
2023-05-14T01:24:40.996Z,100.00
2023-05-14T01:25:29.604Z,100.00
2023-05-14T01:26:23.827Z,100.00
2023-05-14T01:27:49.330Z,100.00
2023-05-14T01:28:40.081Z,100.00
2023-05-14T01:29:30.050Z,100.00
2023-05-14T01:30:31.669Z,100.00
2023-05-14T01:31:26.244Z,100.00
2023-05-14T01:32:19.705Z,100.00
2023-05-14T01:33:11.109Z,100.00
2023-05-14T01:34:07.484Z,100.00
2023-05-14T01:35:00.381Z,100.00
2023-05-14T01:35:48.978Z,100.00
2023-05-14T01:36:41.808Z,100.00
2023-05-14T01:37:44.314Z,100.00
2023-05-14T01:38:33.868Z,100.00
2023-05-14T01:39:23.402Z,100.00
2023-05-14T01:40:13.490Z,100.00
2023-05-14T01:41:00.402Z,100.00
2023-05-14T01:41:59.618Z,100.00
2023-05-14T01:42:56.623Z,100.00
2023-05-14T01:43:39.061Z,100.00
2023-05-14T01:44:21.754Z,100.00
2023-05-14T01:45:13.591Z,100.00
2023-05-14T01:46:00.301Z,100.00
2023-05-14T01:46:56.565Z,100.00
2023-05-14T01:47:40.955Z,100.00
2023-05-14T01:48:47.964Z,100.00
2023-05-14T01:49:32.719Z,100.00
2023-05-14T01:50:23.093Z,100.00
2023-05-14T01:51:16.449Z,100.00
2023-05-14T01:52:13.729Z,100.00
2023-05-14T01:53:07.377Z,100.00
2023-05-14T01:54:02.320Z,100.00
2023-05-14T01:54:48.680Z,100.00
2023-05-14T01:55:42.185Z,100.00
2023-05-14T01:56:40.909Z,100.00
2023-05-14T01:57:28.275Z,100.00
2023-05-14T01:58:23.577Z,100.00
2023-05-14T01:59:10.673Z,100.00
2023-05-14T01:59:56.120Z,100.00
2023-05-14T02:00:43.737Z,100.00
2023-05-14T02:01:46.562Z,100.00
2023-05-14T02:02:34.600Z,100.00
2023-05-14T02:03:18.762Z,100.00
2023-05-14T02:04:09.836Z,100.00
2023-05-14T02:05:10.772Z,100.00
2023-05-14T02:06:13.109Z,100.00
2023-05-14T02:06:59.496Z,100.00
2023-05-14T02:07:57.233Z,100.00
2023-05-14T02:08:40.873Z,100.00
2023-05-14T02:09:28.228Z,100.00
2023-05-14T02:10:16.961Z,100.00
2023-05-14T02:11:08.391Z,100.00
2023-05-14T02:11:58.613Z,100.00
2023-05-14T02:12:44.097Z,100.00
2023-05-14T02:13:34.457Z,100.00
2023-05-14T02:14:35.023Z,100.00
2023-05-14T02:15:35.543Z,100.00
2023-05-14T02:16:18.420Z,100.00
2023-05-14T02:17:11.326Z,100.00
2023-05-14T02:17:54.504Z,100.00
2023-05-14T02:18:48.970Z,100.00
2023-05-14T02:19:30.840Z,100.00
2023-05-14T02:20:17.686Z,100.00
2023-05-14T02:21:01.273Z,100.00
2023-05-14T02:21:44.212Z,100.00
2023-05-14T02:22:25.878Z,100.00
2023-05-14T02:23:15.923Z,100.00
2023-05-14T02:24:03.459Z,100.00
2023-05-14T02:24:49.736Z,100.00
2023-05-14T02:25:41.074Z,100.00
2023-05-14T02:26:26.935Z,100.00
2023-05-14T02:27:35.184Z,100.00
2023-05-14T02:28:22.463Z,100.00
2023-05-14T02:29:20.025Z,100.00
2023-05-14T02:30:08.069Z,100.00
2023-05-14T02:30:54.400Z,100.00
2023-05-14T02:31:46.334Z,100.00
2023-05-14T02:32:43.878Z,100.00
2023-05-14T02:33:43.416Z,100.00
2023-05-14T02:34:42.223Z,100.00
2023-05-14T02:35:26.663Z,100.00
2023-05-14T02:36:29.608Z,100.00
2023-05-14T02:37:14.306Z,100.00
2023-05-14T02:38:00.980Z,100.00
2023-05-14T02:38:46.571Z,100.00
2023-05-14T02:39:42.718Z,100.00
2023-05-14T02:40:27.265Z,100.00
2023-05-14T02:41:13.096Z,100.00
2023-05-14T02:42:23.762Z,100.00
2023-05-14T02:43:12.204Z,100.00
2023-05-14T02:43:57.386Z,100.00
2023-05-14T02:44:41.957Z,100.00
2023-05-14T02:45:30.051Z,100.00
2023-05-14T02:46:21.912Z,100.00
2023-05-14T02:47:14.568Z,100.00
2023-05-14T02:48:05.176Z,100.00
2023-05-14T02:48:53.121Z,100.00
2023-05-14T02:49:43.108Z,100.00
2023-05-14T02:50:24.960Z,100.00
2023-05-14T02:51:10.432Z,100.00
2023-05-14T02:51:54.194Z,100.00
2023-05-14T02:52:39.224Z,100.00
2023-05-14T02:53:27.597Z,100.00
2023-05-14T02:54:18.536Z,100.00
2023-05-14T02:55:06.152Z,100.00
2023-05-14T02:55:49.974Z,100.00
2023-05-14T02:56:34.638Z,100.00
2023-05-14T02:57:18.687Z,100.00
2023-05-14T02:58:11.966Z,100.00
2023-05-14T02:59:02.348Z,100.00
2023-05-14T02:59:52.405Z,100.00
2023-05-14T03:00:37.674Z,100.00
2023-05-14T03:02:15.486Z,100.00
2023-05-14T03:02:39.960Z,100.00
2023-05-14T03:03:25.117Z,100.00
2023-05-14T03:04:10.315Z,100.00
2023-05-14T03:04:52.077Z,100.00
2023-05-14T03:05:43.633Z,100.00
2023-05-14T03:06:48.737Z,100.00
2023-05-14T03:07:38.484Z,100.00
2023-05-14T03:08:20.551Z,100.00
2023-05-14T03:09:28.922Z,100.00
2023-05-14T03:10:13.547Z,100.00
2023-05-14T03:10:59.673Z,100.00
2023-05-14T03:11:53.093Z,100.00
2023-05-14T03:12:34.797Z,100.00
2023-05-14T03:13:17.880Z,100.00
2023-05-14T03:14:01.704Z,100.00
2023-05-14T03:14:43.407Z,100.00
2023-05-14T03:15:29.038Z,100.00
2023-05-14T03:16:21.928Z,100.00
2023-05-14T03:17:14.481Z,100.00
2023-05-14T03:18:11.584Z,100.00
2023-05-14T03:19:02.182Z,100.00
2023-05-14T03:19:44.338Z,100.00
2023-05-14T03:20:41.788Z,100.00
2023-05-14T03:21:27.341Z,100.00
2023-05-14T03:22:37.596Z,100.00
2023-05-14T03:23:28.379Z,100.00
2023-05-14T03:24:12.789Z,100.00
2023-05-14T03:24:54.592Z,100.00
2023-05-14T03:25:36.401Z,100.00
2023-05-14T03:26:18.136Z,100.00
2023-05-14T03:27:08.518Z,100.00
2023-05-14T03:28:01.078Z,100.00
2023-05-14T03:28:47.738Z,100.00
2023-05-14T03:29:46.256Z,100.00
2023-05-14T03:30:29.403Z,100.00
2023-05-14T03:31:21.957Z,100.00
2023-05-14T03:32:10.021Z,100.00
2023-05-14T03:32:54.683Z,100.00
2023-05-14T03:33:40.801Z,100.00
2023-05-14T03:34:32.138Z,100.00
2023-05-14T03:35:18.464Z,100.00
2023-05-14T03:36:24.828Z,100.00
2023-05-14T03:37:13.764Z,100.00
2023-05-14T03:38:23.249Z,100.00
2023-05-14T03:39:09.418Z,100.00
2023-05-14T03:39:53.495Z,100.00
2023-05-14T03:40:43.277Z,100.00
2023-05-14T03:41:34.489Z,100.00
2023-05-14T03:42:24.836Z,100.00
2023-05-14T03:43:12.323Z,100.00
2023-05-14T03:44:09.979Z,100.00
2023-05-14T03:45:14.643Z,100.00
2023-05-14T03:45:59.946Z,100.00
2023-05-14T03:46:43.698Z,100.00
2023-05-14T03:47:31.063Z,100.00
2023-05-14T03:48:37.136Z,100.00
2023-05-14T03:49:36.069Z,100.00
2023-05-14T03:50:25.774Z,100.00
2023-05-14T03:51:14.942Z,100.00
2023-05-14T03:52:12.133Z,100.00
2023-05-14T03:52:59.699Z,100.00
2023-05-14T03:53:50.103Z,100.00
2023-05-14T03:54:44.160Z,100.00
2023-05-14T03:55:31.562Z,100.00
2023-05-14T03:56:15.292Z,100.00
2023-05-14T03:57:00.232Z,100.00
2023-05-14T03:57:44.697Z,100.00
2023-05-14T03:58:37.520Z,100.00
2023-05-14T03:59:36.041Z,100.00
2023-05-14T04:00:23.621Z,100.00
2023-05-14T04:01:13.637Z,100.00
2023-05-14T04:02:11.688Z,100.00
2023-05-14T04:02:59.050Z,100.00
2023-05-14T04:03:43.882Z,100.00
2023-05-14T04:04:31.563Z,100.00
2023-05-14T04:05:22.301Z,100.00
2023-05-14T04:06:28.229Z,100.00
2023-05-14T04:07:27.432Z,100.00
2023-05-14T04:08:09.054Z,100.00
2023-05-14T04:08:50.991Z,100.00
2023-05-14T04:09:35.303Z,100.00
2023-05-14T04:10:22.958Z,100.00
2023-05-14T04:11:07.046Z,100.00
2023-05-14T04:11:53.117Z,100.00
2023-05-14T04:12:40.033Z,100.00
2023-05-14T04:13:29.279Z,100.00
2023-05-14T04:14:17.019Z,100.00
2023-05-14T04:15:01.311Z,100.00
2023-05-14T04:15:59.637Z,100.00
2023-05-14T04:16:58.992Z,100.00
2023-05-14T04:17:44.097Z,100.00
2023-05-14T04:18:35.805Z,100.00
2023-05-14T04:19:32.116Z,100.00
2023-05-14T04:20:15.471Z,100.00
2023-05-14T04:21:02.051Z,100.00
2023-05-14T04:21:58.780Z,100.00
2023-05-14T04:22:45.383Z,100.00
2023-05-14T04:23:31.496Z,100.00
2023-05-14T04:24:20.291Z,100.00
2023-05-14T04:25:14.159Z,100.00
2023-05-14T04:26:12.269Z,100.00
2023-05-14T04:26:53.997Z,100.00
2023-05-14T04:27:41.103Z,100.00
2023-05-14T04:28:42.997Z,100.00
2023-05-14T04:29:30.323Z,100.00
2023-05-14T04:30:15.229Z,100.00
2023-05-14T04:31:02.502Z,100.00
2023-05-14T04:32:13.244Z,100.00
2023-05-14T04:33:02.819Z,100.00
2023-05-14T04:33:51.697Z,100.00
2023-05-14T04:35:02.965Z,100.00
2023-05-14T04:35:51.459Z,100.00
2023-05-14T04:36:49.081Z,100.00
2023-05-14T04:37:33.949Z,100.00
2023-05-14T04:38:19.396Z,100.00
2023-05-14T04:39:35.231Z,100.00
2023-05-14T04:40:23.271Z,100.00
2023-05-14T04:41:33.815Z,100.00
2023-05-14T04:43:07.953Z,100.00
2023-05-14T04:43:54.802Z,100.00
2023-05-14T04:44:50.377Z,100.00
2023-05-14T04:45:55.393Z,100.00
2023-05-14T04:46:50.193Z,100.00
2023-05-14T04:47:35.389Z,100.00
2023-05-14T04:48:27.239Z,100.00
2023-05-14T04:49:09.116Z,100.00
2023-05-14T04:50:00.949Z,100.00
2023-05-14T04:50:56.867Z,100.00
2023-05-14T04:51:38.673Z,100.00
2023-05-14T04:52:38.476Z,100.00
2023-05-14T04:53:30.293Z,100.00
2023-05-14T04:54:17.432Z,100.00
2023-05-14T04:55:14.520Z,100.00
2023-05-14T04:56:09.512Z,100.00
2023-05-14T04:56:55.711Z,100.00
2023-05-14T04:57:45.964Z,100.00
2023-05-14T04:58:45.757Z,100.00
2023-05-14T04:59:29.988Z,100.00
2023-05-14T05:00:21.006Z,100.00
2023-05-14T05:01:16.521Z,100.00
2023-05-14T05:02:08.217Z,100.00
2023-05-14T05:02:53.795Z,100.00
2023-05-14T05:03:42.055Z,100.00
2023-05-14T05:04:24.340Z,100.00
2023-05-14T05:05:06.211Z,100.00
2023-05-14T05:05:49.382Z,100.00
2023-05-14T05:06:35.203Z,100.00
2023-05-14T05:07:28.315Z,100.00
2023-05-14T05:08:13.350Z,100.00
2023-05-14T05:09:12.558Z,100.00
2023-05-14T05:10:00.251Z,100.00
2023-05-14T05:10:45.742Z,100.00
2023-05-14T05:11:39.613Z,100.00
2023-05-14T05:12:35.393Z,100.00
2023-05-14T05:13:33.840Z,100.00
2023-05-14T05:14:22.668Z,100.00
2023-05-14T05:15:26.588Z,100.00
2023-05-14T05:17:15.625Z,100.00
2023-05-14T05:18:06.949Z,100.00
2023-05-14T05:18:54.571Z,100.00
2023-05-14T05:19:44.088Z,100.00
2023-05-14T05:20:39.462Z,100.00
2023-05-14T05:21:36.132Z,100.00
2023-05-14T05:23:38.734Z,100.00
2023-05-14T05:24:29.059Z,100.00
2023-05-14T05:25:13.499Z,100.00
2023-05-14T05:25:55.338Z,100.00
2023-05-14T05:26:39.506Z,100.00
2023-05-14T05:27:25.665Z,100.00
2023-05-14T05:28:10.589Z,100.00
2023-05-14T05:29:03.926Z,100.00
2023-05-14T05:29:58.160Z,100.00
2023-05-14T05:31:08.617Z,100.00
2023-05-14T05:31:53.134Z,100.00
2023-05-14T05:32:44.619Z,100.00
2023-05-14T05:33:55.548Z,100.00
2023-05-14T05:34:44.894Z,100.00
2023-05-14T05:35:58.446Z,100.00
2023-05-14T05:37:13.891Z,100.00
2023-05-14T05:38:01.927Z,100.00
2023-05-14T05:39:09.570Z,100.00
2023-05-14T05:40:13.245Z,100.00
2023-05-14T05:41:59.917Z,100.00
2023-05-14T05:43:01.448Z,100.00
2023-05-14T05:43:50.132Z,100.00
2023-05-14T05:44:51.701Z,100.00
2023-05-14T05:45:36.414Z,100.00
2023-05-14T05:46:36.370Z,100.00
2023-05-14T05:47:38.948Z,100.00
2023-05-14T05:48:22.048Z,100.00
2023-05-14T05:49:07.920Z,100.00
2023-05-14T05:49:58.020Z,100.00
2023-05-14T05:53:42.559Z,100.00
2023-05-14T05:54:51.066Z,100.00
2023-05-14T05:55:46.571Z,100.00
2023-05-14T05:56:28.649Z,100.00
2023-05-14T05:57:35.388Z,100.00
2023-05-14T05:58:27.433Z,100.00
2023-05-14T05:59:37.761Z,100.00
2023-05-14T06:00:31.511Z,100.00
2023-05-14T06:01:18.701Z,100.00
2023-05-14T06:02:08.928Z,100.00
2023-05-14T06:03:10.619Z,100.00
2023-05-14T06:03:55.180Z,100.00
2023-05-14T06:04:46.862Z,100.00
2023-05-14T06:05:28.553Z,100.00
2023-05-14T06:06:18.561Z,100.00
2023-05-14T06:07:03.612Z,100.00
2023-05-14T06:08:01.102Z,100.00
2023-05-14T06:08:42.961Z,100.00
2023-05-14T06:09:34.801Z,100.00
2023-05-14T06:10:47.534Z,100.00
2023-05-14T06:11:35.784Z,100.00
2023-05-14T06:12:17.652Z,100.00
2023-05-14T06:13:05.571Z,100.00
2023-05-14T06:13:53.092Z,100.00
2023-05-14T06:14:39.103Z,100.00
2023-05-14T06:15:40.303Z,100.00
2023-05-14T06:16:37.605Z,100.00
2023-05-14T06:17:25.936Z,100.00
2023-05-14T06:18:35.022Z,100.00
2023-05-14T06:19:27.165Z,100.00
2023-05-14T06:20:18.146Z,100.00
2023-05-14T06:21:14.546Z,100.00
2023-05-14T06:21:58.525Z,100.00
2023-05-14T06:22:44.274Z,100.00
2023-05-14T06:23:38.630Z,100.00
2023-05-14T06:24:38.425Z,100.00
2023-05-14T06:26:39.753Z,100.00
2023-05-14T06:27:24.793Z,100.00
2023-05-14T06:28:18.098Z,100.00
2023-05-14T06:30:31.218Z,100.00
2023-05-14T06:31:22.191Z,100.00
2023-05-14T06:32:16.656Z,100.00
2023-05-14T06:33:07.889Z,100.00
2023-05-14T06:34:03.843Z,100.00
2023-05-14T06:35:06.985Z,100.00
2023-05-14T06:36:00.970Z,100.00
2023-05-14T06:37:04.865Z,100.00
2023-05-14T06:38:01.741Z,100.00
2023-05-14T06:38:58.209Z,100.00
2023-05-14T06:39:56.993Z,100.00
2023-05-14T06:40:58.815Z,100.00
2023-05-14T06:42:07.798Z,100.00
2023-05-14T06:43:21.889Z,100.00
2023-05-14T06:44:15.107Z,100.00
2023-05-14T06:45:38.646Z,100.00
2023-05-14T06:48:38.597Z,100.00
2023-05-14T06:49:27.884Z,100.00
2023-05-14T06:50:15.135Z,100.00
2023-05-14T06:51:02.501Z,100.00
2023-05-14T06:51:51.942Z,100.00
2023-05-14T06:52:33.762Z,100.00
2023-05-14T06:53:19.958Z,100.00
2023-05-14T06:54:12.991Z,100.00
2023-05-14T06:55:57.844Z,100.00
2023-05-14T06:56:48.352Z,100.00
2023-05-14T06:57:45.666Z,100.00
2023-05-14T06:58:52.817Z,100.00
2023-05-14T06:59:41.968Z,100.00
2023-05-14T07:00:44.366Z,100.00
2023-05-14T07:01:30.692Z,100.00
2023-05-14T07:02:21.997Z,100.00
2023-05-14T07:03:23.969Z,100.00
2023-05-14T07:04:08.495Z,100.00
2023-05-14T07:04:57.376Z,100.00
2023-05-14T07:05:52.049Z,100.00
2023-05-14T07:08:21.840Z,100.00
2023-05-14T07:09:26.721Z,100.00
2023-05-14T07:10:17.683Z,100.00
2023-05-14T07:11:40.969Z,100.00
2023-05-14T07:12:24.615Z,100.00
2023-05-14T07:13:09.622Z,100.00
2023-05-14T07:14:10.208Z,100.00
2023-05-14T07:15:02.688Z,100.00
2023-05-14T07:15:49.256Z,100.00
2023-05-14T07:16:38.058Z,100.00
2023-05-14T07:18:27.592Z,100.00
2023-05-14T07:19:14.790Z,100.00
2023-05-14T07:20:00.306Z,100.00
2023-05-14T07:20:48.289Z,100.00
2023-05-14T07:21:38.894Z,100.00
2023-05-14T07:22:22.122Z,100.00
2023-05-14T07:23:10.235Z,100.00
2023-05-14T07:23:51.877Z,100.00
2023-05-14T07:24:36.315Z,100.00
2023-05-14T07:25:32.996Z,100.00
2023-05-14T07:29:05.351Z,100.00
2023-05-14T07:29:49.144Z,100.00
2023-05-14T07:30:51.195Z,100.00
2023-05-14T07:31:44.678Z,100.00
2023-05-14T07:32:27.817Z,100.00
2023-05-14T07:33:29.693Z,100.00
2023-05-14T07:34:20.727Z,100.00
2023-05-14T07:35:22.809Z,100.00
2023-05-14T07:36:15.181Z,100.00
2023-05-14T07:37:05.496Z,100.00
2023-05-14T07:37:47.253Z,100.00
2023-05-14T07:38:37.739Z,100.00
2023-05-14T07:39:19.600Z,100.00
2023-05-14T07:40:03.264Z,100.00
2023-05-14T07:40:50.387Z,100.00
2023-05-14T07:41:45.207Z,100.00
2023-05-14T07:42:36.639Z,100.00
2023-05-14T07:43:19.149Z,100.00
2023-05-14T07:44:05.916Z,100.00
2023-05-14T07:44:55.902Z,100.00
2023-05-14T07:45:43.663Z,100.00
2023-05-14T07:46:25.841Z,100.00
2023-05-14T07:47:19.505Z,100.00
2023-05-14T07:48:10.727Z,100.00
2023-05-14T07:48:56.707Z,100.00
2023-05-14T07:49:40.749Z,100.00
2023-05-14T07:50:25.509Z,100.00
2023-05-14T07:51:16.212Z,100.00
2023-05-14T07:52:11.784Z,100.00
2023-05-14T07:52:55.886Z,100.00
2023-05-14T07:53:41.634Z,100.00
2023-05-14T07:54:26.094Z,100.00
2023-05-14T07:55:18.184Z,100.00
2023-05-14T07:56:08.651Z,100.00
2023-05-14T07:56:57.523Z,100.00
2023-05-14T07:57:42.122Z,100.00
2023-05-14T07:58:45.317Z,100.00
2023-05-14T07:59:34.902Z,100.00
2023-05-14T08:00:28.050Z,100.00
2023-05-14T08:01:26.048Z,100.00
2023-05-14T08:02:14.080Z,100.00
2023-05-14T08:03:12.205Z,100.00
2023-05-14T08:03:56.422Z,100.00
2023-05-14T08:04:41.325Z,100.00
2023-05-14T08:05:28.207Z,100.00
2023-05-14T08:06:22.723Z,100.00
2023-05-14T08:07:19.193Z,99.17
2023-05-14T08:08:24.208Z,100.00
2023-05-14T08:09:13.061Z,100.00
2023-05-14T08:09:57.762Z,100.00
2023-05-14T08:10:59.204Z,96.48
2023-05-14T08:12:11.648Z,95.17
2023-05-14T08:13:02.286Z,97.57
2023-05-14T08:13:53.958Z,98.83
2023-05-14T08:14:40.304Z,100.00
2023-05-14T08:15:34.400Z,99.89
2023-05-14T08:16:21.493Z,92.99
2023-05-14T08:17:08.584Z,94.31
2023-05-14T08:17:53.860Z,94.09
2023-05-14T08:18:41.228Z,94.81
2023-05-14T08:19:35.686Z,96.09
2023-05-14T08:20:30.467Z,95.57
2023-05-14T08:21:18.040Z,93.85
2023-05-14T08:22:10.604Z,94.44
2023-05-14T08:23:00.466Z,92.49
2023-05-14T08:24:01.654Z,91.06
2023-05-14T08:24:47.857Z,91.93
2023-05-14T08:25:38.940Z,91.88
2023-05-14T08:26:29.328Z,89.09
2023-05-14T08:27:13.619Z,89.33
2023-05-14T08:28:03.772Z,91.37
2023-05-14T08:28:47.844Z,92.60
2023-05-14T08:30:24.561Z,91.02
2023-05-14T08:31:14.518Z,89.95
2023-05-14T08:32:19.335Z,91.18
2023-05-14T08:33:25.641Z,92.83
2023-05-14T08:34:19.236Z,94.62
2023-05-14T08:35:07.108Z,96.29
2023-05-14T08:35:56.824Z,95.84
2023-05-14T08:36:49.209Z,98.38
2023-05-14T08:37:33.591Z,96.85
2023-05-14T08:38:24.116Z,95.64
2023-05-14T08:39:10.602Z,95.66
2023-05-14T08:40:05.242Z,93.73
2023-05-14T08:41:08.423Z,93.91
2023-05-14T08:42:11.334Z,92.46
2023-05-14T08:43:03.675Z,92.43
2023-05-14T08:43:58.334Z,92.97
2023-05-14T08:44:53.721Z,89.73
2023-05-14T08:45:51.456Z,87.62
2023-05-14T08:46:34.146Z,88.95
2023-05-14T08:47:19.034Z,90.38
2023-05-14T08:48:10.076Z,92.83
2023-05-14T08:49:02.668Z,94.58
2023-05-14T08:50:03.725Z,94.01
2023-05-14T08:50:48.708Z,92.54
2023-05-14T08:51:38.041Z,92.06
2023-05-14T08:52:37.833Z,90.21
2023-05-14T08:53:26.523Z,87.29
2023-05-14T08:54:19.453Z,88.24
2023-05-14T08:55:05.808Z,91.02
2023-05-14T08:55:56.234Z,92.47
2023-05-14T08:56:53.293Z,93.79
2023-05-14T08:57:42.454Z,94.56
2023-05-14T08:58:42.425Z,94.02
2023-05-14T08:59:38.982Z,93.91
2023-05-14T09:00:27.072Z,92.22
2023-05-14T09:01:13.270Z,90.10
2023-05-14T09:02:07.919Z,90.62
2023-05-14T09:03:20.630Z,88.80
2023-05-14T09:04:19.568Z,87.15
2023-05-14T09:05:17.098Z,86.94
2023-05-14T09:06:02.334Z,87.12
2023-05-14T09:07:00.273Z,87.15
2023-05-14T09:07:43.679Z,88.94
2023-05-14T09:08:29.164Z,90.32
2023-05-14T09:09:17.646Z,90.04
2023-05-14T09:10:09.024Z,90.44
2023-05-14T09:10:53.639Z,90.54
2023-05-14T09:11:43.617Z,88.60
2023-05-14T09:12:31.423Z,86.54
2023-05-14T09:13:27.619Z,84.89
2023-05-14T09:14:22.143Z,85.56
2023-05-14T09:15:12.653Z,86.28
2023-05-14T09:15:58.700Z,87.37
2023-05-14T09:16:51.848Z,86.75
2023-05-14T09:17:52.541Z,87.64
2023-05-14T09:18:38.898Z,87.47
2023-05-14T09:19:23.883Z,88.03
2023-05-14T09:20:12.473Z,88.53
2023-05-14T09:20:54.578Z,88.74
2023-05-14T09:21:42.821Z,89.02
2023-05-14T09:22:30.246Z,89.89
2023-05-14T09:23:22.853Z,90.35
2023-05-14T09:24:39.664Z,88.86
2023-05-14T09:25:29.441Z,87.93
2023-05-14T09:26:37.385Z,87.22
2023-05-14T09:27:36.385Z,86.21
2023-05-14T09:28:19.971Z,86.72
2023-05-14T09:29:08.112Z,87.02
2023-05-14T09:29:55.719Z,86.58
2023-05-14T09:30:55.830Z,87.84
2023-05-14T09:31:52.328Z,88.94
2023-05-14T09:32:45.293Z,89.65
2023-05-14T09:33:38.857Z,90.75
2023-05-14T09:34:43.293Z,89.42
2023-05-14T09:35:32.335Z,88.70
2023-05-14T09:36:14.190Z,89.21
2023-05-14T09:37:26.043Z,90.19
2023-05-14T09:38:24.456Z,89.45
2023-05-14T09:39:06.999Z,89.59
2023-05-14T09:40:13.849Z,89.12
2023-05-14T09:41:05.086Z,89.67
2023-05-14T09:42:08.205Z,91.23
2023-05-14T09:42:58.984Z,91.97
2023-05-14T09:43:48.269Z,91.96
2023-05-14T09:44:41.695Z,89.24
2023-05-14T09:45:29.065Z,88.20
2023-05-14T09:46:16.061Z,89.09
2023-05-14T09:47:09.715Z,89.27
2023-05-14T09:48:21.951Z,88.93
2023-05-14T09:49:09.888Z,87.38
2023-05-14T09:49:54.858Z,86.31
2023-05-14T09:50:47.876Z,86.22
2023-05-14T09:51:34.801Z,85.84
2023-05-14T09:52:26.294Z,84.26
2023-05-14T09:53:11.220Z,84.27
2023-05-14T09:54:08.752Z,85.35
2023-05-14T09:55:12.855Z,83.06
2023-05-14T09:55:56.993Z,82.08
2023-05-14T09:56:42.986Z,83.42
2023-05-14T09:57:37.174Z,82.94
2023-05-14T09:58:30.616Z,82.94
2023-05-14T09:59:17.765Z,80.55
2023-05-14T09:59:59.569Z,80.34
2023-05-14T10:00:48.851Z,81.88
2023-05-14T10:01:46.647Z,81.94
2023-05-14T10:03:46.387Z,80.16
2023-05-14T10:04:33.624Z,79.74
2023-05-14T10:05:49.226Z,80.06
2023-05-14T10:06:36.333Z,79.63
2023-05-14T10:07:28.506Z,79.53
2023-05-14T10:08:58.384Z,78.22
2023-05-14T10:09:49.339Z,79.16
2023-05-14T10:10:42.145Z,78.18
2023-05-14T10:11:38.997Z,79.84
2023-05-14T10:12:26.156Z,79.42
2023-05-14T10:13:25.997Z,80.44
2023-05-14T10:14:18.027Z,80.60
2023-05-14T10:15:17.502Z,80.83
2023-05-14T10:16:24.525Z,82.05
2023-05-14T10:17:11.364Z,81.71
2023-05-14T10:18:03.775Z,81.47
2023-05-14T10:19:14.968Z,82.21
2023-05-14T10:20:00.202Z,80.50
2023-05-14T10:21:03.013Z,80.07
2023-05-14T10:21:56.154Z,80.68
2023-05-14T10:22:38.078Z,77.67
2023-05-14T10:23:32.459Z,76.33
2023-05-14T10:24:21.853Z,73.88
2023-05-14T10:25:13.013Z,76.01
2023-05-14T10:26:06.523Z,75.69
2023-05-14T10:26:48.928Z,73.44
2023-05-14T10:27:45.091Z,74.39
2023-05-14T10:28:32.023Z,73.40
2023-05-14T10:29:13.732Z,73.81
2023-05-14T10:30:00.727Z,74.63
2023-05-14T10:30:57.476Z,72.59
2023-05-14T10:32:03.935Z,73.43
2023-05-14T10:33:09.007Z,74.42
2023-05-14T10:34:00.802Z,73.91
2023-05-14T10:34:54.237Z,71.92
2023-05-14T10:36:04.812Z,71.76
2023-05-14T10:36:52.484Z,71.25
2023-05-14T10:37:41.259Z,68.73
2023-05-14T10:38:32.694Z,67.44
2023-05-14T10:39:19.672Z,67.75
2023-05-14T10:40:13.974Z,71.25
2023-05-14T10:41:15.605Z,73.86
2023-05-14T10:42:02.896Z,75.00
2023-05-14T10:43:00.416Z,76.29
2023-05-14T10:43:46.448Z,78.09
2023-05-14T10:44:41.771Z,78.17
2023-05-14T10:45:29.486Z,77.22
2023-05-14T10:46:29.291Z,78.31
2023-05-14T10:47:11.571Z,76.05
2023-05-14T10:48:27.199Z,75.98
2023-05-14T10:49:11.642Z,76.48
2023-05-14T10:50:10.854Z,74.45
2023-05-14T10:51:15.728Z,70.75
2023-05-14T10:52:03.260Z,69.80
2023-05-14T10:52:52.824Z,71.25
2023-05-14T10:53:41.604Z,72.03
2023-05-14T10:54:46.928Z,72.10
2023-05-14T10:55:40.107Z,69.54
2023-05-14T10:56:42.183Z,68.81
2023-05-14T10:57:38.581Z,65.29
2023-05-14T10:58:45.769Z,65.13
2023-05-14T10:59:28.296Z,65.91
2023-05-14T11:00:15.088Z,66.62
2023-05-14T11:01:02.822Z,66.10
2023-05-14T11:02:02.283Z,66.32
2023-05-14T11:03:09.884Z,67.49
2023-05-14T11:03:57.240Z,67.48
2023-05-14T11:04:42.080Z,65.65
2023-05-14T11:05:31.576Z,66.21
2023-05-14T11:06:43.279Z,66.00
2023-05-14T11:07:37.643Z,66.44
2023-05-14T11:08:27.489Z,67.76
2023-05-14T11:09:17.262Z,69.34
2023-05-14T11:11:13.897Z,72.60
2023-05-14T11:12:01.432Z,71.57
2023-05-14T11:12:50.797Z,72.28
2023-05-14T11:13:37.886Z,72.78
2023-05-14T11:15:38.520Z,71.56
2023-05-14T11:16:24.400Z,71.39
2023-05-14T11:17:14.621Z,72.67
2023-05-14T11:18:03.371Z,73.35
2023-05-14T11:18:56.471Z,73.04
2023-05-14T11:19:47.038Z,74.38
2023-05-14T11:20:44.087Z,74.42